Hartford, Connecticut
Current Conditions -  °F | °C
As of 4:53 PM on Thursday 18 Dec 2014 (Local Time) from KHFD Reporting Station
Overcast Overcast  
Wind Chill: 32°   Ceiling: 3300
Heat Index: 39°   Visibility: 10mi
Dew Point: 26°   Wind: 12mph
Humidity: 60%   Direction: 270°W
Pressure: 29.92"   Gusts: 21mph
Location:  41.76°N, 72.67°W
Report Text: KHFD 182153Z 27010G18KT 10SM OVC033 04/M03 A2992 RMK AO2 SLP130 T00391033
Loading
Personal Weather Stations






























Interactive Weather Map New forecast layout! Learn more

10-Day Weather Forecast

Advertisements
Track Severe Weather on mobile